sensor_id;sensor_type;location;lat;lon;timestamp;temperature;humidity
4376;DHT22;2202;50.866;12.750;2022-10-14T00:01:57;11.10;94.90
4376;DHT22;2202;50.866;12.750;2022-10-14T00:04:24;11.20;94.90
4376;DHT22;2202;50.866;12.750;2022-10-14T00:06:50;11.20;94.80
4376;DHT22;2202;50.866;12.750;2022-10-14T00:09:17;11.20;94.70
4376;DHT22;2202;50.866;12.750;2022-10-14T00:11:44;11.20;94.80
4376;DHT22;2202;50.866;12.750;2022-10-14T00:14:14;11.30;94.90
4376;DHT22;2202;50.866;12.750;2022-10-14T00:16:45;11.30;94.80
4376;DHT22;2202;50.866;12.750;2022-10-14T00:19:13;11.30;94.80
4376;DHT22;2202;50.866;12.750;2022-10-14T00:21:42;11.30;94.90
4376;DHT22;2202;50.866;12.750;2022-10-14T00:24:11;11.40;94.70
4376;DHT22;2202;50.866;12.750;2022-10-14T00:26:39;11.40;94.70
4376;DHT22;2202;50.866;12.750;2022-10-14T00:29:11;11.50;94.70
4376;DHT22;2202;50.866;12.750;2022-10-14T00:31:39;11.50;94.50
4376;DHT22;2202;50.866;12.750;2022-10-14T00:34:06;11.60;94.50
4376;DHT22;2202;50.866;12.750;2022-10-14T00:36:37;11.50;94.60
4376;DHT22;2202;50.866;12.750;2022-10-14T00:39:05;11.50;94.70
4376;DHT22;2202;50.866;12.750;2022-10-14T00:41:33;11.50;94.80
4376;DHT22;2202;50.866;12.750;2022-10-14T00:44:03;11.50;94.90
4376;DHT22;2202;50.866;12.750;2022-10-14T00:46:32;11.50;95.00
4376;DHT22;2202;50.866;12.750;2022-10-14T00:49:04;11.50;95.00
4376;DHT22;2202;50.866;12.750;2022-10-14T00:51:33;11.50;95.00
4376;DHT22;2202;50.866;12.750;2022-10-14T00:54:01;11.60;94.80
4376;DHT22;2202;50.866;12.750;2022-10-14T00:56:29;11.60;94.60
4376;DHT22;2202;50.866;12.750;2022-10-14T00:58:57;11.60;94.70
4376;DHT22;2202;50.866;12.750;2022-10-14T01:01:25;11.60;94.80
4376;DHT22;2202;50.866;12.750;2022-10-14T01:03:52;11.50;94.90
4376;DHT22;2202;50.866;12.750;2022-10-14T01:06:26;11.50;94.90
4376;DHT22;2202;50.866;12.750;2022-10-14T01:09:01;11.50;95.10
4376;DHT22;2202;50.866;12.750;2022-10-14T01:11:35;11.50;95.10
4376;DHT22;2202;50.866;12.750;2022-10-14T01:14:14;11.60;95.00
4376;DHT22;2202;50.866;12.750;2022-10-14T01:16:51;11.60;95.00
4376;DHT22;2202;50.866;12.750;2022-10-14T01:19:47;11.60;95.00
4376;DHT22;2202;50.866;12.750;2022-10-14T01:22:22;11.60;94.90
4376;DHT22;2202;50.866;12.750;2022-10-14T01:25:02;11.70;95.00
4376;DHT22;2202;50.866;12.750;2022-10-14T01:28:04;11.70;95.00
4376;DHT22;2202;50.866;12.750;2022-10-14T01:30:43;11.70;94.90
4376;DHT22;2202;50.866;12.750;2022-10-14T01:33:14;11.80;94.80
4376;DHT22;2202;50.866;12.750;2022-10-14T01:35:50;11.80;94.80
4376;DHT22;2202;50.866;12.750;2022-10-14T01:38:21;11.90;94.70
4376;DHT22;2202;50.866;12.750;2022-10-14T01:40:54;11.90;94.70
4376;DHT22;2202;50.866;12.750;2022-10-14T01:43:24;11.90;94.70
4376;DHT22;2202;50.866;12.750;2022-10-14T01:45:55;11.90;94.70
4376;DHT22;2202;50.866;12.750;2022-10-14T01:48:27;11.80;94.80
4376;DHT22;2202;50.866;12.750;2022-10-14T01:50:58;11.80;94.80
4376;DHT22;2202;50.866;12.750;2022-10-14T01:53:30;11.80;94.90
4376;DHT22;2202;50.866;12.750;2022-10-14T01:55:59;11.80;94.80
4376;DHT22;2202;50.866;12.750;2022-10-14T01:58:28;11.80;94.80
4376;DHT22;2202;50.866;12.750;2022-10-14T02:00:59;11.90;94.80
4376;DHT22;2202;50.866;12.750;2022-10-14T02:03:40;12.00;94.50
4376;DHT22;2202;50.866;12.750;2022-10-14T02:06:11;11.90;94.60
4376;DHT22;2202;50.866;12.750;2022-10-14T02:08:51;11.90;94.80
4376;DHT22;2202;50.866;12.750;2022-10-14T02:11:21;11.90;94.90
4376;DHT22;2202;50.866;12.750;2022-10-14T02:14:03;11.80;94.90
4376;DHT22;2202;50.866;12.750;2022-10-14T02:16:37;11.80;94.90
4376;DHT22;2202;50.866;12.750;2022-10-14T02:19:14;11.80;94.90
4376;DHT22;2202;50.866;12.750;2022-10-14T02:21:46;11.80;95.10
4376;DHT22;2202;50.866;12.750;2022-10-14T02:24:18;11.80;95.20
4376;DHT22;2202;50.866;12.750;2022-10-14T02:26:46;11.80;95.20
4376;DHT22;2202;50.866;12.750;2022-10-14T02:29:15;11.80;95.10
4376;DHT22;2202;50.866;12.750;2022-10-14T02:31:45;11.80;95.30
4376;DHT22;2202;50.866;12.750;2022-10-14T02:34:15;11.70;95.30
4376;DHT22;2202;50.866;12.750;2022-10-14T02:36:43;11.70;95.40
4376;DHT22;2202;50.866;12.750;2022-10-14T02:39:16;11.70;95.40
4376;DHT22;2202;50.866;12.750;2022-10-14T02:41:45;11.70;95.40
4376;DHT22;2202;50.866;12.750;2022-10-14T02:44:12;11.70;95.30
4376;DHT22;2202;50.866;12.750;2022-10-14T02:46:39;11.70;95.40
4376;DHT22;2202;50.866;12.750;2022-10-14T02:49:08;11.70;95.40
4376;DHT22;2202;50.866;12.750;2022-10-14T02:51:34;11.70;95.60
4376;DHT22;2202;50.866;12.750;2022-10-14T02:54:01;11.70;95.60
4376;DHT22;2202;50.866;12.750;2022-10-14T02:56:28;11.70;95.60
4376;DHT22;2202;50.866;12.750;2022-10-14T02:58:55;11.70;95.60
4376;DHT22;2202;50.866;12.750;2022-10-14T03:01:22;11.70;95.70
4376;DHT22;2202;50.866;12.750;2022-10-14T03:03:49;11.70;95.70
4376;DHT22;2202;50.866;12.750;2022-10-14T03:06:17;11.70;95.60
4376;DHT22;2202;50.866;12.750;2022-10-14T03:08:44;11.70;95.50
4376;DHT22;2202;50.866;12.750;2022-10-14T03:11:11;11.70;95.50
4376;DHT22;2202;50.866;12.750;2022-10-14T03:13:38;11.70;95.60
4376;DHT22;2202;50.866;12.750;2022-10-14T03:16:05;11.70;95.70
4376;DHT22;2202;50.866;12.750;2022-10-14T03:18:32;11.70;95.70
4376;DHT22;2202;50.866;12.750;2022-10-14T03:20:58;11.70;95.60
4376;DHT22;2202;50.866;12.750;2022-10-14T03:23:27;11.60;95.70
4376;DHT22;2202;50.866;12.750;2022-10-14T03:25:54;11.60;95.60
4376;DHT22;2202;50.866;12.750;2022-10-14T03:28:21;11.60;95.70
4376;DHT22;2202;50.866;12.750;2022-10-14T03:30:48;11.60;95.80
4376;DHT22;2202;50.866;12.750;2022-10-14T03:33:14;11.60;95.80
4376;DHT22;2202;50.866;12.750;2022-10-14T03:35:41;11.60;95.80
4376;DHT22;2202;50.866;12.750;2022-10-14T03:38:08;11.60;95.70
4376;DHT22;2202;50.866;12.750;2022-10-14T03:40:36;11.60;95.70
4376;DHT22;2202;50.866;12.750;2022-10-14T03:43:03;11.60;95.70
4376;DHT22;2202;50.866;12.750;2022-10-14T03:45:30;11.60;95.70
4376;DHT22;2202;50.866;12.750;2022-10-14T03:47:57;11.60;95.70
4376;DHT22;2202;50.866;12.750;2022-10-14T03:50:24;11.60;95.70
4376;DHT22;2202;50.866;12.750;2022-10-14T03:52:50;11.50;95.80
4376;DHT22;2202;50.866;12.750;2022-10-14T03:55:17;11.60;95.80
4376;DHT22;2202;50.866;12.750;2022-10-14T03:57:46;11.60;95.70
4376;DHT22;2202;50.866;12.750;2022-10-14T04:00:13;11.60;95.70
4376;DHT22;2202;50.866;12.750;2022-10-14T04:02:40;11.60;95.30
4376;DHT22;2202;50.866;12.750;2022-10-14T04:05:08;11.60;95.60
4376;DHT22;2202;50.866;12.750;2022-10-14T04:07:35;11.60;95.50
4376;DHT22;2202;50.866;12.750;2022-10-14T04:10:02;11.50;95.80
4376;DHT22;2202;50.866;12.750;2022-10-14T04:12:29;11.50;96.00
4376;DHT22;2202;50.866;12.750;2022-10-14T04:14:57;11.50;96.10
4376;DHT22;2202;50.866;12.750;2022-10-14T04:17:24;11.60;95.80
4376;DHT22;2202;50.866;12.750;2022-10-14T04:19:51;11.50;95.70
4376;DHT22;2202;50.866;12.750;2022-10-14T04:22:19;11.50;95.90
4376;DHT22;2202;50.866;12.750;2022-10-14T04:24:47;11.40;95.90
4376;DHT22;2202;50.866;12.750;2022-10-14T04:27:14;11.40;96.00
4376;DHT22;2202;50.866;12.750;2022-10-14T04:29:41;11.40;96.10
4376;DHT22;2202;50.866;12.750;2022-10-14T04:32:09;11.30;96.40
4376;DHT22;2202;50.866;12.750;2022-10-14T04:34:36;11.30;96.50
4376;DHT22;2202;50.866;12.750;2022-10-14T04:37:03;11.40;96.50
4376;DHT22;2202;50.866;12.750;2022-10-14T04:39:30;11.40;96.50
4376;DHT22;2202;50.866;12.750;2022-10-14T04:41:57;11.40;96.50
4376;DHT22;2202;50.866;12.750;2022-10-14T04:44:23;11.40;96.50
4376;DHT22;2202;50.866;12.750;2022-10-14T04:46:50;11.40;96.40
4376;DHT22;2202;50.866;12.750;2022-10-14T04:49:18;11.50;96.40
4376;DHT22;2202;50.866;12.750;2022-10-14T04:51:45;11.60;96.00
4376;DHT22;2202;50.866;12.750;2022-10-14T04:54:12;11.50;96.00
4376;DHT22;2202;50.866;12.750;2022-10-14T04:56:39;11.50;95.90
4376;DHT22;2202;50.866;12.750;2022-10-14T04:59:06;11.60;95.70
4376;DHT22;2202;50.866;12.750;2022-10-14T05:01:33;11.60;95.70
4376;DHT22;2202;50.866;12.750;2022-10-14T05:04:00;11.60;95.70
4376;DHT22;2202;50.866;12.750;2022-10-14T05:06:28;11.60;95.70
4376;DHT22;2202;50.866;12.750;2022-10-14T05:08:55;11.60;95.70
4376;DHT22;2202;50.866;12.750;2022-10-14T05:11:22;11.60;95.60
4376;DHT22;2202;50.866;12.750;2022-10-14T05:13:49;11.60;95.60
4376;DHT22;2202;50.866;12.750;2022-10-14T05:16:15;11.60;95.70
4376;DHT22;2202;50.866;12.750;2022-10-14T05:18:42;11.60;95.50
4376;DHT22;2202;50.866;12.750;2022-10-14T05:21:09;11.70;95.50
4376;DHT22;2202;50.866;12.750;2022-10-14T05:23:38;11.70;95.40
4376;DHT22;2202;50.866;12.750;2022-10-14T05:26:04;11.70;95.40
4376;DHT22;2202;50.866;12.750;2022-10-14T05:28:31;11.70;95.20
4376;DHT22;2202;50.866;12.750;2022-10-14T05:30:58;11.70;95.40
4376;DHT22;2202;50.866;12.750;2022-10-14T05:33:25;11.60;95.50
4376;DHT22;2202;50.866;12.750;2022-10-14T05:35:52;11.70;95.50
4376;DHT22;2202;50.866;12.750;2022-10-14T05:38:19;11.70;95.40
4376;DHT22;2202;50.866;12.750;2022-10-14T05:40:52;11.70;95.30
4376;DHT22;2202;50.866;12.750;2022-10-14T05:43:19;11.70;95.30
4376;DHT22;2202;50.866;12.750;2022-10-14T05:45:46;11.70;95.20
4376;DHT22;2202;50.866;12.750;2022-10-14T05:48:13;11.70;95.20
4376;DHT22;2202;50.866;12.750;2022-10-14T05:50:41;11.70;95.20
4376;DHT22;2202;50.866;12.750;2022-10-14T05:53:08;11.70;95.20
4376;DHT22;2202;50.866;12.750;2022-10-14T05:55:35;11.70;95.10
4376;DHT22;2202;50.866;12.750;2022-10-14T05:58:03;11.80;95.20
4376;DHT22;2202;50.866;12.750;2022-10-14T06:00:30;11.70;95.10
4376;DHT22;2202;50.866;12.750;2022-10-14T06:02:57;11.70;95.20
4376;DHT22;2202;50.866;12.750;2022-10-14T06:05:24;11.80;95.00
4376;DHT22;2202;50.866;12.750;2022-10-14T06:07:51;11.80;95.00
4376;DHT22;2202;50.866;12.750;2022-10-14T06:10:18;11.80;94.90
4376;DHT22;2202;50.866;12.750;2022-10-14T06:12:45;11.80;94.90
4376;DHT22;2202;50.866;12.750;2022-10-14T06:15:13;11.90;94.80
4376;DHT22;2202;50.866;12.750;2022-10-14T06:17:40;11.80;94.90
4376;DHT22;2202;50.866;12.750;2022-10-14T06:20:07;11.80;94.90
4376;DHT22;2202;50.866;12.750;2022-10-14T06:22:34;11.90;94.90
4376;DHT22;2202;50.866;12.750;2022-10-14T06:25:01;11.90;94.90
4376;DHT22;2202;50.866;12.750;2022-10-14T06:27:28;11.90;94.80
4376;DHT22;2202;50.866;12.750;2022-10-14T06:29:55;12.00;94.70
4376;DHT22;2202;50.866;12.750;2022-10-14T06:32:23;12.00;94.70
4376;DHT22;2202;50.866;12.750;2022-10-14T06:34:50;12.00;94.90
4376;DHT22;2202;50.866;12.750;2022-10-14T06:37:16;12.00;94.80
4376;DHT22;2202;50.866;12.750;2022-10-14T06:39:43;12.00;94.70
4376;DHT22;2202;50.866;12.750;2022-10-14T06:42:10;12.00;94.90
4376;DHT22;2202;50.866;12.750;2022-10-14T06:44:37;12.00;94.70
4376;DHT22;2202;50.866;12.750;2022-10-14T06:47:05;12.10;94.60
4376;DHT22;2202;50.866;12.750;2022-10-14T06:49:33;12.10;94.60
4376;DHT22;2202;50.866;12.750;2022-10-14T06:52:00;12.10;94.60
4376;DHT22;2202;50.866;12.750;2022-10-14T06:54:27;12.10;94.80
4376;DHT22;2202;50.866;12.750;2022-10-14T06:56:54;12.10;94.70
4376;DHT22;2202;50.866;12.750;2022-10-14T06:59:21;12.10;94.60
4376;DHT22;2202;50.866;12.750;2022-10-14T07:01:48;12.10;94.70
4376;DHT22;2202;50.866;12.750;2022-10-14T07:04:15;12.20;94.60
4376;DHT22;2202;50.866;12.750;2022-10-14T07:06:43;12.20;94.70
4376;DHT22;2202;50.866;12.750;2022-10-14T07:09:10;12.20;94.60
4376;DHT22;2202;50.866;12.750;2022-10-14T07:11:36;12.20;94.60
4376;DHT22;2202;50.866;12.750;2022-10-14T07:14:03;12.20;94.50
4376;DHT22;2202;50.866;12.750;2022-10-14T07:16:30;12.20;94.50
4376;DHT22;2202;50.866;12.750;2022-10-14T07:18:57;12.30;94.60
4376;DHT22;2202;50.866;12.750;2022-10-14T07:21:24;12.30;94.40
4376;DHT22;2202;50.866;12.750;2022-10-14T07:23:52;12.30;94.60
4376;DHT22;2202;50.866;12.750;2022-10-14T07:26:20;12.30;94.50
4376;DHT22;2202;50.866;12.750;2022-10-14T07:28:46;12.30;94.50
4376;DHT22;2202;50.866;12.750;2022-10-14T07:31:13;12.30;94.60
4376;DHT22;2202;50.866;12.750;2022-10-14T07:33:40;12.30;94.40
4376;DHT22;2202;50.866;12.750;2022-10-14T07:36:09;12.40;94.50
4376;DHT22;2202;50.866;12.750;2022-10-14T07:38:36;12.40;94.60
4376;DHT22;2202;50.866;12.750;2022-10-14T07:41:06;12.40;94.30
4376;DHT22;2202;50.866;12.750;2022-10-14T07:43:42;12.50;94.40
4376;DHT22;2202;50.866;12.750;2022-10-14T07:46:09;12.40;94.40
4376;DHT22;2202;50.866;12.750;2022-10-14T07:48:38;12.40;94.40
4376;DHT22;2202;50.866;12.750;2022-10-14T07:51:05;12.50;94.50
4376;DHT22;2202;50.866;12.750;2022-10-14T07:53:32;12.50;94.50
4376;DHT22;2202;50.866;12.750;2022-10-14T07:55:59;12.50;94.50
4376;DHT22;2202;50.866;12.750;2022-10-14T07:58:29;12.50;94.40
4376;DHT22;2202;50.866;12.750;2022-10-14T08:00:57;12.50;94.60
4376;DHT22;2202;50.866;12.750;2022-10-14T08:03:25;12.60;94.50
4376;DHT22;2202;50.866;12.750;2022-10-14T08:05:58;12.60;94.60
4376;DHT22;2202;50.866;12.750;2022-10-14T08:08:25;12.60;94.90
4376;DHT22;2202;50.866;12.750;2022-10-14T08:10:59;12.60;94.90
4376;DHT22;2202;50.866;12.750;2022-10-14T08:13:28;12.50;95.40
4376;DHT22;2202;50.866;12.750;2022-10-14T08:15:56;12.50;95.50
4376;DHT22;2202;50.866;12.750;2022-10-14T08:18:23;12.50;95.90
4376;DHT22;2202;50.866;12.750;2022-10-14T08:20:50;12.50;95.90
4376;DHT22;2202;50.866;12.750;2022-10-14T08:23:17;12.70;95.90
4376;DHT22;2202;50.866;12.750;2022-10-14T08:25:46;12.70;95.60
4376;DHT22;2202;50.866;12.750;2022-10-14T08:28:13;12.70;95.40
4376;DHT22;2202;50.866;12.750;2022-10-14T08:30:41;12.80;95.30
4376;DHT22;2202;50.866;12.750;2022-10-14T08:33:08;12.80;95.50
4376;DHT22;2202;50.866;12.750;2022-10-14T08:35:37;12.80;95.20
4376;DHT22;2202;50.866;12.750;2022-10-14T08:38:04;12.70;95.90
4376;DHT22;2202;50.866;12.750;2022-10-14T08:40:42;12.70;96.20
4376;DHT22;2202;50.866;12.750;2022-10-14T08:43:17;12.60;96.30
4376;DHT22;2202;50.866;12.750;2022-10-14T08:45:51;12.60;96.50
4376;DHT22;2202;50.866;12.750;2022-10-14T08:48:22;12.60;97.00
4376;DHT22;2202;50.866;12.750;2022-10-14T08:50:53;12.60;97.20
4376;DHT22;2202;50.866;12.750;2022-10-14T08:53:25;12.60;97.40
4376;DHT22;2202;50.866;12.750;2022-10-14T08:55:57;12.60;97.60
4376;DHT22;2202;50.866;12.750;2022-10-14T08:58:29;12.70;97.40
4376;DHT22;2202;50.866;12.750;2022-10-14T09:01:02;12.70;97.00
4376;DHT22;2202;50.866;12.750;2022-10-14T09:03:30;12.70;97.00
4376;DHT22;2202;50.866;12.750;2022-10-14T09:06:01;12.70;97.10
4376;DHT22;2202;50.866;12.750;2022-10-14T09:08:32;12.80;96.70
4376;DHT22;2202;50.866;12.750;2022-10-14T09:10:59;12.80;96.60
4376;DHT22;2202;50.866;12.750;2022-10-14T09:13:30;13.00;96.10
4376;DHT22;2202;50.866;12.750;2022-10-14T09:16:04;13.20;95.70
4376;DHT22;2202;50.866;12.750;2022-10-14T09:18:36;13.40;94.90
4376;DHT22;2202;50.866;12.750;2022-10-14T09:21:19;13.60;94.20
4376;DHT22;2202;50.866;12.750;2022-10-14T09:23:48;13.70;93.60
4376;DHT22;2202;50.866;12.750;2022-10-14T09:26:20;13.90;93.10
4376;DHT22;2202;50.866;12.750;2022-10-14T09:28:47;13.90;92.50
4376;DHT22;2202;50.866;12.750;2022-10-14T09:31:20;14.00;92.10
4376;DHT22;2202;50.866;12.750;2022-10-14T09:33:46;14.20;91.70
4376;DHT22;2202;50.866;12.750;2022-10-14T09:36:16;14.30;91.10
4376;DHT22;2202;50.866;12.750;2022-10-14T09:38:44;14.20;90.90
4376;DHT22;2202;50.866;12.750;2022-10-14T09:41:13;14.20;91.10
4376;DHT22;2202;50.866;12.750;2022-10-14T09:44:12;14.30;91.00
4376;DHT22;2202;50.866;12.750;2022-10-14T09:46:41;14.30;90.60
4376;DHT22;2202;50.866;12.750;2022-10-14T09:49:13;14.50;90.90
4376;DHT22;2202;50.866;12.750;2022-10-14T09:51:42;14.70;91.00
4376;DHT22;2202;50.866;12.750;2022-10-14T09:54:21;14.80;90.60
4376;DHT22;2202;50.866;12.750;2022-10-14T09:56:48;14.90;89.00
4376;DHT22;2202;50.866;12.750;2022-10-14T09:59:17;14.90;89.80
4376;DHT22;2202;50.866;12.750;2022-10-14T10:01:51;14.90;88.80
4376;DHT22;2202;50.866;12.750;2022-10-14T10:04:31;14.90;89.40
4376;DHT22;2202;50.866;12.750;2022-10-14T10:07:00;14.90;90.00
4376;DHT22;2202;50.866;12.750;2022-10-14T10:09:27;14.90;88.00
4376;DHT22;2202;50.866;12.750;2022-10-14T10:11:54;14.80;87.40
4376;DHT22;2202;50.866;12.750;2022-10-14T10:14:23;14.80;87.20
4376;DHT22;2202;50.866;12.750;2022-10-14T10:17:10;14.90;87.80
4376;DHT22;2202;50.866;12.750;2022-10-14T10:19:40;14.80;85.60
4376;DHT22;2202;50.866;12.750;2022-10-14T10:22:22;15.00;85.40
4376;DHT22;2202;50.866;12.750;2022-10-14T10:25:15;14.90;85.00
4376;DHT22;2202;50.866;12.750;2022-10-14T10:27:39;14.80;81.40
4376;DHT22;2202;50.866;12.750;2022-10-14T10:30:14;14.80;84.20
4376;DHT22;2202;50.866;12.750;2022-10-14T10:32:53;14.80;85.40
4376;DHT22;2202;50.866;12.750;2022-10-14T10:35:25;15.00;85.00
4376;DHT22;2202;50.866;12.750;2022-10-14T10:38:05;15.10;84.80
4376;DHT22;2202;50.866;12.750;2022-10-14T10:40:49;15.10;82.40
4376;DHT22;2202;50.866;12.750;2022-10-14T10:43:53;15.00;81.40
4376;DHT22;2202;50.866;12.750;2022-10-14T10:46:37;14.80;83.40
4376;DHT22;2202;50.866;12.750;2022-10-14T10:49:19;14.70;84.20
4376;DHT22;2202;50.866;12.750;2022-10-14T10:51:53;14.80;83.40
4376;DHT22;2202;50.866;12.750;2022-10-14T10:54:32;14.70;83.40
4376;DHT22;2202;50.866;12.750;2022-10-14T10:57:08;14.60;84.00
4376;DHT22;2202;50.866;12.750;2022-10-14T10:59:45;14.60;83.80
4376;DHT22;2202;50.866;12.750;2022-10-14T11:02:37;14.60;83.60
4376;DHT22;2202;50.866;12.750;2022-10-14T11:05:16;14.60;82.60
4376;DHT22;2202;50.866;12.750;2022-10-14T11:07:51;14.60;81.60
4376;DHT22;2202;50.866;12.750;2022-10-14T11:10:46;14.70;82.20
4376;DHT22;2202;50.866;12.750;2022-10-14T11:13:38;14.70;83.60
4376;DHT22;2202;50.866;12.750;2022-10-14T11:16:10;14.80;82.60
4376;DHT22;2202;50.866;12.750;2022-10-14T11:18:45;14.90;80.80
4376;DHT22;2202;50.866;12.750;2022-10-14T11:21:21;14.90;80.80
4376;DHT22;2202;50.866;12.750;2022-10-14T11:23:59;15.00;81.00
4376;DHT22;2202;50.866;12.750;2022-10-14T11:29:47;15.10;81.00
4376;DHT22;2202;50.866;12.750;2022-10-14T11:32:21;15.20;82.80
4376;DHT22;2202;50.866;12.750;2022-10-14T11:34:56;15.30;81.00
4376;DHT22;2202;50.866;12.750;2022-10-14T11:37:37;15.20;77.60
4376;DHT22;2202;50.866;12.750;2022-10-14T11:40:19;15.10;79.80
4376;DHT22;2202;50.866;12.750;2022-10-14T11:43:01;15.10;79.00
4376;DHT22;2202;50.866;12.750;2022-10-14T11:45:48;15.10;78.60
4376;DHT22;2202;50.866;12.750;2022-10-14T11:48:23;15.10;78.20
4376;DHT22;2202;50.866;12.750;2022-10-14T11:50:56;15.20;77.40
4376;DHT22;2202;50.866;12.750;2022-10-14T11:53:37;15.20;78.20
4376;DHT22;2202;50.866;12.750;2022-10-14T11:56:13;15.20;79.60
4376;DHT22;2202;50.866;12.750;2022-10-14T11:58:44;15.40;79.00
4376;DHT22;2202;50.866;12.750;2022-10-14T12:01:13;15.40;79.00
4376;DHT22;2202;50.866;12.750;2022-10-14T12:03:49;15.60;76.40
4376;DHT22;2202;50.866;12.750;2022-10-14T12:06:18;15.60;76.20
4376;DHT22;2202;50.866;12.750;2022-10-14T12:08:52;15.50;79.20
4376;DHT22;2202;50.866;12.750;2022-10-14T12:11:28;15.60;78.00
4376;DHT22;2202;50.866;12.750;2022-10-14T12:14:02;15.60;78.00
4376;DHT22;2202;50.866;12.750;2022-10-14T12:16:30;15.70;77.00
4376;DHT22;2202;50.866;12.750;2022-10-14T12:18:58;15.80;76.80
4376;DHT22;2202;50.866;12.750;2022-10-14T12:21:31;15.80;77.60
4376;DHT22;2202;50.866;12.750;2022-10-14T12:24:03;15.80;76.60
4376;DHT22;2202;50.866;12.750;2022-10-14T12:26:47;15.90;76.20
4376;DHT22;2202;50.866;12.750;2022-10-14T12:29:17;15.90;77.00
4376;DHT22;2202;50.866;12.750;2022-10-14T12:31:48;15.90;75.60
4376;DHT22;2202;50.866;12.750;2022-10-14T12:34:31;15.90;75.40
4376;DHT22;2202;50.866;12.750;2022-10-14T12:37:00;15.90;74.20
4376;DHT22;2202;50.866;12.750;2022-10-14T12:39:50;15.70;75.40
4376;DHT22;2202;50.866;12.750;2022-10-14T12:42:18;15.70;74.80
4376;DHT22;2202;50.866;12.750;2022-10-14T12:44:49;15.80;76.40
4376;DHT22;2202;50.866;12.750;2022-10-14T12:47:19;16.00;74.60
4376;DHT22;2202;50.866;12.750;2022-10-14T12:49:48;16.10;74.60
4376;DHT22;2202;50.866;12.750;2022-10-14T12:52:21;16.00;73.80
4376;DHT22;2202;50.866;12.750;2022-10-14T12:54:50;16.00;75.20
4376;DHT22;2202;50.866;12.750;2022-10-14T12:57:25;16.10;75.00
4376;DHT22;2202;50.866;12.750;2022-10-14T12:59:54;16.00;73.60
4376;DHT22;2202;50.866;12.750;2022-10-14T13:02:28;16.00;75.60
4376;DHT22;2202;50.866;12.750;2022-10-14T13:04:59;15.90;76.80
4376;DHT22;2202;50.866;12.750;2022-10-14T13:07:44;15.90;76.20
4376;DHT22;2202;50.866;12.750;2022-10-14T13:10:42;16.00;77.00
4376;DHT22;2202;50.866;12.750;2022-10-14T13:13:46;16.10;74.80
4376;DHT22;2202;50.866;12.750;2022-10-14T13:19:41;16.40;72.40
4376;DHT22;2202;50.866;12.750;2022-10-14T13:22:36;16.20;75.00
4376;DHT22;2202;50.866;12.750;2022-10-14T13:25:12;16.20;72.60
4376;DHT22;2202;50.866;12.750;2022-10-14T13:27:48;16.20;74.60
4376;DHT22;2202;50.866;12.750;2022-10-14T13:30:23;16.30;73.40
4376;DHT22;2202;50.866;12.750;2022-10-14T13:33:02;16.40;71.80
4376;DHT22;2202;50.866;12.750;2022-10-14T13:35:32;16.50;71.20
4376;DHT22;2202;50.866;12.750;2022-10-14T13:38:05;16.30;72.20
4376;DHT22;2202;50.866;12.750;2022-10-14T13:40:35;16.40;71.60
4376;DHT22;2202;50.866;12.750;2022-10-14T13:43:07;16.30;72.00
4376;DHT22;2202;50.866;12.750;2022-10-14T13:45:40;16.20;74.00
4376;DHT22;2202;50.866;12.750;2022-10-14T13:48:11;16.20;73.60
4376;DHT22;2202;50.866;12.750;2022-10-14T13:50:39;16.20;74.20
4376;DHT22;2202;50.866;12.750;2022-10-14T13:53:13;16.30;76.00
4376;DHT22;2202;50.866;12.750;2022-10-14T13:55:44;16.40;74.20
4376;DHT22;2202;50.866;12.750;2022-10-14T13:58:15;16.50;73.00
4376;DHT22;2202;50.866;12.750;2022-10-14T14:00:49;16.40;71.60
4376;DHT22;2202;50.866;12.750;2022-10-14T14:03:21;16.50;72.80
4376;DHT22;2202;50.866;12.750;2022-10-14T14:05:49;16.70;72.20
4376;DHT22;2202;50.866;12.750;2022-10-14T14:08:21;16.90;69.00
4376;DHT22;2202;50.866;12.750;2022-10-14T14:10:54;17.10;71.20
4376;DHT22;2202;50.866;12.750;2022-10-14T14:13:22;17.30;67.60
4376;DHT22;2202;50.866;12.750;2022-10-14T14:15:50;17.20;69.60
4376;DHT22;2202;50.866;12.750;2022-10-14T14:18:31;17.00;66.80
4376;DHT22;2202;50.866;12.750;2022-10-14T14:20:59;16.80;68.00
4376;DHT22;2202;50.866;12.750;2022-10-14T14:23:27;16.70;68.20
4376;DHT22;2202;50.866;12.750;2022-10-14T14:25:55;16.60;71.20
4376;DHT22;2202;50.866;12.750;2022-10-14T14:28:26;16.40;72.00
4376;DHT22;2202;50.866;12.750;2022-10-14T14:30:55;16.20;72.40
4376;DHT22;2202;50.866;12.750;2022-10-14T14:33:27;16.20;71.40
4376;DHT22;2202;50.866;12.750;2022-10-14T14:35:56;16.20;71.20
4376;DHT22;2202;50.866;12.750;2022-10-14T14:38:25;16.20;72.20
4376;DHT22;2202;50.866;12.750;2022-10-14T14:41:00;16.30;72.20
4376;DHT22;2202;50.866;12.750;2022-10-14T14:43:31;16.30;71.80
4376;DHT22;2202;50.866;12.750;2022-10-14T14:46:00;16.40;72.60
4376;DHT22;2202;50.866;12.750;2022-10-14T14:48:28;16.30;72.00
4376;DHT22;2202;50.866;12.750;2022-10-14T14:50:56;16.40;71.60
4376;DHT22;2202;50.866;12.750;2022-10-14T14:53:24;16.30;73.40
4376;DHT22;2202;50.866;12.750;2022-10-14T14:56:00;16.30;73.80
4376;DHT22;2202;50.866;12.750;2022-10-14T14:58:33;16.30;73.00
4376;DHT22;2202;50.866;12.750;2022-10-14T15:01:01;16.40;73.40
4376;DHT22;2202;50.866;12.750;2022-10-14T15:03:31;16.30;73.80
4376;DHT22;2202;50.866;12.750;2022-10-14T15:05:59;16.30;73.40
4376;DHT22;2202;50.866;12.750;2022-10-14T15:08:29;16.10;73.00
4376;DHT22;2202;50.866;12.750;2022-10-14T15:10:57;16.00;73.40
4376;DHT22;2202;50.866;12.750;2022-10-14T15:13:28;15.90;74.80
4376;DHT22;2202;50.866;12.750;2022-10-14T15:15:56;15.80;74.80
4376;DHT22;2202;50.866;12.750;2022-10-14T15:18:24;15.80;75.00
4376;DHT22;2202;50.866;12.750;2022-10-14T15:21:04;15.70;75.00
4376;DHT22;2202;50.866;12.750;2022-10-14T15:23:39;15.80;75.00
4376;DHT22;2202;50.866;12.750;2022-10-14T15:26:23;15.90;75.00
4376;DHT22;2202;50.866;12.750;2022-10-14T15:29:14;16.00;74.40
4376;DHT22;2202;50.866;12.750;2022-10-14T15:31:44;16.10;74.20
4376;DHT22;2202;50.866;12.750;2022-10-14T15:34:17;16.20;74.40
4376;DHT22;2202;50.866;12.750;2022-10-14T15:36:44;16.20;74.20
4376;DHT22;2202;50.866;12.750;2022-10-14T15:39:11;16.20;73.40
4376;DHT22;2202;50.866;12.750;2022-10-14T15:41:39;16.20;73.60
4376;DHT22;2202;50.866;12.750;2022-10-14T15:44:06;16.20;73.60
4376;DHT22;2202;50.866;12.750;2022-10-14T15:46:34;16.20;73.40
4376;DHT22;2202;50.866;12.750;2022-10-14T15:49:24;16.20;73.60
4376;DHT22;2202;50.866;12.750;2022-10-14T15:51:52;16.20;73.60
4376;DHT22;2202;50.866;12.750;2022-10-14T15:54:19;16.10;73.00
4376;DHT22;2202;50.866;12.750;2022-10-14T15:56:45;15.90;73.80
4376;DHT22;2202;50.866;12.750;2022-10-14T15:59:13;15.70;74.60
4376;DHT22;2202;50.866;12.750;2022-10-14T16:01:41;15.50;75.60
4376;DHT22;2202;50.866;12.750;2022-10-14T16:04:15;15.40;76.60
4376;DHT22;2202;50.866;12.750;2022-10-14T16:06:45;15.20;77.60
4376;DHT22;2202;50.866;12.750;2022-10-14T16:09:12;15.00;78.20
4376;DHT22;2202;50.866;12.750;2022-10-14T16:11:39;15.00;78.60
4376;DHT22;2202;50.866;12.750;2022-10-14T16:14:07;15.00;78.80
4376;DHT22;2202;50.866;12.750;2022-10-14T16:16:37;15.00;78.80